Time;durP1;ratioP1;P1;durP2;ratioP2;P2;SDS_P1;SDS_P2;PMS_P1;PMS_P2;Temp;Humidity;BMP_temperature;BMP_pressure;BME280_temperature;BME280_humidity;BME280_pressure;Samples;Min_cycle;Max_cycle;Signal;HPM_P1;HPM_P2
2022/11/23 00:03:46;;;;;;;;;;;5.30;99.90;;;4.31;100.00;94454.09;10507292;28;3358;-73
2022/11/23 00:08:59;;;;;;;;;;;5.20;99.90;;;4.22;100.00;94454.91;10504459;28;3338;-73
2022/11/23 00:14:02;;;;;;;;;;;5.20;99.90;;;4.24;100.00;94458.88;10498020;28;3315;-79
2022/11/23 00:19:05;;;;;;;;;;;5.20;99.90;;;4.14;100.00;94458.09;10503898;28;3331;-77
2022/11/23 00:24:07;;;;;;;;;;;5.20;99.90;;;4.15;100.00;94455.16;10518234;28;3327;-74
2022/11/23 00:29:10;;;;;;;;;;;5.10;99.90;;;4.14;100.00;94458.88;10504005;28;3306;-74
2022/11/23 00:34:12;;;;;;;;;;;5.10;99.90;;;4.15;100.00;94449.84;10517239;28;3318;-74
2022/11/23 00:39:15;;;;;;;;;;;5.00;99.90;;;4.22;100.00;94454.91;10512338;28;3342;-73
2022/11/23 00:44:18;;;;;;;;;;;5.10;99.90;;;4.28;100.00;94451.19;10511499;28;3010;-73
2022/11/23 00:49:22;;;;;;;;;;;5.10;99.90;;;4.27;100.00;94458.34;10510658;28;3444;-72
2022/11/23 00:54:24;;;;;;;;;;;5.10;99.90;;;4.28;100.00;94449.31;10510709;28;3385;-73
2022/11/23 00:59:37;;;;;;;;;;;5.10;99.90;;;4.25;100.00;94441.84;10499567;28;3263;-75
2022/11/23 01:04:40;;;;;;;;;;;5.10;99.90;;;4.23;100.00;94448.50;10517788;28;3466;-74
2022/11/23 01:09:43;;;;;;;;;;;5.20;99.90;;;4.19;100.00;94450.09;10527280;28;3644;-73
2022/11/23 01:14:46;;;;;;;;;;;5.10;99.90;;;4.13;100.00;94454.59;10512254;28;3489;-73
2022/11/23 01:19:48;;;;;;;;;;;5.10;99.90;;;4.12;100.00;94454.88;10522412;28;3302;-76
2022/11/23 01:24:51;;;;;;;;;;;5.10;99.90;;;4.13;100.00;94454.59;10505347;28;3334;-73
2022/11/23 01:29:54;;;;;;;;;;;5.10;99.90;;;4.15;100.00;94459.69;10516258;28;3388;-74
2022/11/23 01:34:57;;;;;;;;;;;5.10;99.90;;;4.17;100.00;94468.19;10528874;28;3303;-75
2022/11/23 01:40:00;;;;;;;;;;;5.10;99.90;;;4.15;100.00;94463.13;10514409;28;3311;-76
2022/11/23 01:45:03;;;;;;;;;;;5.10;99.90;;;4.05;100.00;94460.47;10521143;28;3411;-73
2022/11/23 01:50:06;;;;;;;;;;;5.00;99.90;;;4.10;100.00;94463.13;10529826;28;3282;-73
2022/11/23 01:55:08;;;;;;;;;;;5.10;99.90;;;4.09;100.00;94472.19;10534277;28;3330;-74
2022/11/23 02:00:12;;;;;;;;;;;5.10;99.90;;;4.06;100.00;94483.31;10531068;28;3340;-73
2022/11/23 02:05:15;;;;;;;;;;;5.10;99.90;;;3.88;100.00;94474.00;10465191;28;3403;-74
2022/11/23 02:10:17;;;;;;;;;;;5.00;99.90;;;3.78;100.00;94477.44;10468063;28;3339;-73
2022/11/23 02:15:20;;;;;;;;;;;5.00;99.90;;;3.78;100.00;94487.28;10456760;28;3386;-74
2022/11/23 02:20:26;;;;;;;;;;;4.80;99.90;;;3.85;100.00;94477.19;10466843;28;3296;-74
2022/11/23 02:25:29;;;;;;;;;;;4.80;99.90;;;3.62;100.00;94473.13;10473401;28;3652;-75
2022/11/23 02:30:31;;;;;;;;;;;4.80;99.90;;;3.41;100.00;94466.16;10465083;28;3496;-73
2022/11/23 02:35:34;;;;;;;;;;;4.70;99.90;;;3.27;100.00;94475.69;10455992;28;3319;-73
2022/11/23 02:40:37;;;;;;;;;;;4.60;99.90;;;3.10;100.00;94476.66;10455575;28;3335;-73
2022/11/23 02:45:39;;;;;;;;;;;4.40;99.90;;;3.03;100.00;94480.59;10463852;28;3355;-73
2022/11/23 02:50:42;;;;;;;;;;;4.20;99.90;;;3.00;100.00;94467.84;10474348;28;3339;-72
2022/11/23 02:55:45;;;;;;;;;;;4.10;99.90;;;2.91;100.00;94470.19;10468088;28;3340;-73
2022/11/23 03:00:47;;;;;;;;;;;4.00;99.90;;;2.81;100.00;94472.78;10476363;28;3367;-73
2022/11/23 03:05:50;;;;;;;;;;;4.00;99.90;;;2.77;100.00;94477.00;10504654;28;3461;-74
2022/11/23 03:10:53;;;;;;;;;;;3.90;99.90;;;2.75;100.00;94479.13;10513783;28;3276;-74
2022/11/23 03:15:56;;;;;;;;;;;3.90;99.90;;;2.70;100.00;94478.03;10506662;28;3343;-75
2022/11/23 03:20:59;;;;;;;;;;;3.90;99.90;;;2.68;100.00;94493.41;10515186;28;3352;-76
2022/11/23 03:26:02;;;;;;;;;;;3.80;99.90;;;2.73;100.00;94489.97;10513837;28;3391;-74
2022/11/23 03:31:11;;;;;;;;;;;3.80;99.90;;;2.71;100.00;94479.63;10502211;28;3329;-73
2022/11/23 03:36:14;;;;;;;;;;;3.80;99.90;;;2.69;100.00;94481.75;10507588;28;3331;-72
2022/11/23 03:41:16;;;;;;;;;;;3.50;99.90;;;2.60;100.00;94485.91;10509639;28;3358;-73
2022/11/23 03:46:19;;;;;;;;;;;3.80;99.90;;;2.52;100.00;94485.59;10509114;28;3272;-74
2022/11/23 03:51:23;;;;;;;;;;;3.60;99.90;;;2.46;100.00;94479.44;10506765;28;3248;-73
2022/11/23 03:56:30;;;;;;;;;;;3.60;99.90;;;2.39;100.00;94476.22;10514150;28;3315;-74
2022/11/23 04:01:32;;;;;;;;;;;3.60;99.90;;;2.26;100.00;94476.66;10520468;28;3334;-73
2022/11/23 04:06:35;;;;;;;;;;;3.50;99.90;;;2.16;100.00;94474.69;10514738;28;3344;-75
2022/11/23 04:11:38;;;;;;;;;;;3.40;99.90;;;2.05;100.00;94468.53;10508113;28;3263;-74
2022/11/23 04:16:40;;;;;;;;;;;3.30;99.90;;;2.07;100.00;94473.56;10522495;28;3419;-73
2022/11/23 04:21:43;;;;;;;;;;;;;;;2.16;100.00;94467.56;10503957;28;3295;-74
2022/11/23 04:26:47;;;;;;;;;;;;;;;2.25;100.00;94475.06;10503389;28;3288;-74
2022/11/23 04:31:50;;;;;;;;;;;;;;;2.23;100.00;94477.97;10513825;28;3350;-74
2022/11/23 04:36:53;;;;;;;;;;;;;;;2.12;100.00;94468.31;10513786;28;3303;-76
2022/11/23 04:41:58;;;;;;;;;;;;;;;2.19;100.00;94470.75;10525774;28;3318;-74
2022/11/23 04:47:01;;;;;;;;;;;;;;;2.17;100.00;94466.50;10523609;28;3337;-73
2022/11/23 04:52:04;;;;;;;;;;;;;;;2.24;100.00;94468.16;10514103;28;3287;-74
2022/11/23 04:57:07;;;;;;;;;;;;;;;2.29;100.00;94471.66;10523228;28;3315;-76
2022/11/23 05:02:10;;;;;;;;;;;3.20;99.90;;;2.43;100.00;94472.81;10520771;28;3339;-73
2022/11/23 05:07:12;;;;;;;;;;;3.40;99.90;;;2.65;100.00;94464.72;10514202;28;3408;-73
2022/11/23 05:12:15;;;;;;;;;;;3.50;99.90;;;2.75;100.00;94457.91;10519684;28;3321;-76
2022/11/23 05:17:18;;;;;;;;;;;3.70;99.90;;;2.86;100.00;94460.34;10512849;28;3306;-75
2022/11/23 05:22:25;;;;;;;;;;;3.70;99.90;;;2.92;100.00;94454.00;10504439;28;3323;-75
2022/11/23 05:27:27;;;;;;;;;;;3.80;99.90;;;3.02;100.00;94458.56;10523041;28;3335;-74
2022/11/23 05:32:30;;;;;;;;;;;3.90;99.90;;;3.15;100.00;94449.34;10521309;28;3271;-74
2022/11/23 05:37:33;;;;;;;;;;;4.00;99.90;;;3.20;100.00;94450.16;10500727;28;3356;-74
2022/11/23 05:42:36;;;;;;;;;;;4.10;99.90;;;3.24;100.00;94448.59;10520751;28;3282;-74
2022/11/23 05:47:39;;;;;;;;;;;4.10;99.90;;;3.36;100.00;94447.53;10516398;28;3356;-72
2022/11/23 05:52:42;;;;;;;;;;;4.20;99.90;;;3.41;100.00;94444.91;10523207;28;3346;-74
2022/11/23 05:57:54;;;;;;;;;;;4.40;99.90;;;3.48;100.00;94454.22;10524605;28;3429;-74
2022/11/23 06:02:57;;;;;;;;;;;4.40;99.90;;;3.46;100.00;94442.28;10515004;28;3378;-75
2022/11/23 06:08:00;;;;;;;;;;;4.40;99.90;;;3.52;100.00;94441.22;10518881;28;3362;-73
2022/11/23 06:13:03;;;;;;;;;;;4.40;99.90;;;3.52;100.00;94447.34;10518631;28;3321;-74
2022/11/23 06:18:06;;;;;;;;;;;4.40;99.90;;;3.48;100.00;94448.13;10518541;28;3505;-74
2022/11/23 06:23:09;;;;;;;;;;;4.40;99.90;;;3.62;100.00;94448.41;10517411;28;3317;-74
2022/11/23 06:28:12;;;;;;;;;;;4.60;99.90;;;3.68;100.00;94450.81;10509721;28;3417;-74
2022/11/23 06:33:14;;;;;;;;;;;4.60;99.90;;;3.68;100.00;94445.50;10509442;28;3519;-75
2022/11/23 06:38:17;;;;;;;;;;;4.60;99.90;;;3.79;100.00;94443.69;10505398;28;3344;-74
2022/11/23 06:43:20;;;;;;;;;;;4.60;99.90;;;3.75;100.00;94450.56;10520022;28;3258;-74
2022/11/23 06:48:23;;;;;;;;;;;4.70;99.90;;;3.86;100.00;94454.84;10517702;28;3313;-76
2022/11/23 06:53:25;;;;;;;;;;;4.80;99.90;;;4.04;100.00;94464.19;10519148;28;3287;-76
2022/11/23 06:58:28;;;;;;;;;;;4.80;99.90;;;4.05;100.00;94460.47;10522067;28;3330;-75
2022/11/23 07:03:38;;;;;;;;;;;5.00;99.90;;;4.14;100.00;94472.19;10521859;28;3326;-75
2022/11/23 07:08:42;;;;;;;;;;;5.00;99.90;;;4.13;100.00;94478.53;10527285;28;3322;-73
2022/11/23 07:13:45;;;;;;;;;;;5.00;99.90;;;4.22;100.00;94471.66;10516320;28;3324;-74
2022/11/23 07:18:47;;;;;;;;;;;5.10;99.90;;;4.19;100.00;94474.81;10508600;28;3371;-74
2022/11/23 07:23:50;;;;;;;;;;;5.10;99.90;;;4.19;100.00;94480.16;10526697;28;3303;-75
2022/11/23 07:28:53;;;;;;;;;;;5.20;99.90;;;4.36;100.00;94482.56;10534015;28;3287;-74
2022/11/23 07:33:55;;;;;;;;;;;5.20;99.90;;;4.44;100.00;94490.00;10521821;28;3338;-73
2022/11/23 07:38:58;;;;;;;;;;;5.30;99.90;;;4.59;100.00;94499.88;10514910;28;3348;-74
2022/11/23 07:44:00;;;;;;;;;;;5.40;99.90;;;4.58;100.00;94492.91;10521001;28;3395;-73
2022/11/23 07:49:04;;;;;;;;;;;5.50;99.90;;;4.74;100.00;94504.38;10524184;28;3354;-76
2022/11/23 07:54:06;;;;;;;;;;;5.60;99.90;;;5.04;100.00;94498.22;10513546;28;3283;-76
2022/11/23 07:59:12;;;;;;;;;;;5.70;99.90;;;5.35;100.00;94505.06;10511714;28;3315;-75
2022/11/23 08:04:15;;;;;;;;;;;5.90;99.90;;;5.62;100.00;94502.03;10519498;28;3384;-77
2022/11/23 08:09:17;;;;;;;;;;;6.20;99.90;;;5.58;100.00;94508.16;10522245;28;3296;-74
2022/11/23 08:14:20;;;;;;;;;;;6.30;99.90;;;5.77;100.00;94497.69;10516489;28;3304;-73
2022/11/23 08:19:23;;;;;;;;;;;6.50;99.90;;;5.79;100.00;94496.34;10513686;28;3073;-73
2022/11/23 08:24:26;;;;;;;;;;;6.60;99.90;;;5.80;100.00;94497.94;10502903;28;3124;-75
2022/11/23 08:29:29;;;;;;;;;;;6.60;99.90;;;5.91;100.00;94504.03;10519768;28;2987;-75
2022/11/23 08:34:36;;;;;;;;;;;6.70;99.90;;;6.05;100.00;94501.59;10516227;28;3183;-74
2022/11/23 08:39:39;;;;;;;;;;;6.80;99.90;;;6.20;100.00;94496.13;10506297;28;3056;-75
2022/11/23 08:44:42;;;;;;;;;;;6.80;99.90;;;6.28;100.00;94495.53;10485563;28;3061;-75
2022/11/23 08:49:44;;;;;;;;;;;6.90;99.90;;;6.36;100.00;94496.81;10513994;28;3094;-75
2022/11/23 08:54:47;;;;;;;;;;;7.10;99.90;;;6.56;100.00;94501.25;10520721;28;3027;-74
2022/11/23 08:59:50;;;;;;;;;;;7.20;99.90;;;6.76;100.00;94493.84;10518955;28;3090;-73
2022/11/23 09:04:53;;;;;;;;;;;7.40;99.90;;;6.88;100.00;94493.47;10513632;28;3210;-73
2022/11/23 09:09:56;;;;;;;;;;;7.50;99.90;;;6.83;100.00;94485.50;10501061;28;2971;-74
2022/11/23 09:15:01;;;;;;;;;;;7.60;99.90;;;6.80;100.00;94490.59;10507786;28;3051;-74
2022/11/23 09:20:04;;;;;;;;;;;7.70;99.90;;;6.81;100.00;94492.19;10504909;28;2989;-74
2022/11/23 09:25:07;;;;;;;;;;;7.70;99.90;;;6.86;100.00;94495.63;10509344;28;2932;-73
2022/11/23 09:30:10;;;;;;;;;;;7.60;99.90;;;6.74;100.00;94490.66;10518799;28;3029;-75
2022/11/23 09:35:16;;;;;;;;;;;7.70;99.90;;;6.42;100.00;94496.50;10514740;28;3043;-75
2022/11/23 09:40:19;;;;;;;;;;;7.50;99.90;;;6.17;100.00;94484.16;10521137;28;3030;-77
2022/11/23 09:45:22;;;;;;;;;;;7.30;99.90;;;5.97;100.00;94484.25;10516496;28;3030;-76
2022/11/23 09:50:25;;;;;;;;;;;7.10;99.90;;;5.93;100.00;94488.56;10514423;28;3192;-77
2022/11/23 09:55:28;;;;;;;;;;;7.00;99.90;;;5.85;100.00;94481.94;10515892;28;2994;-73
2022/11/23 10:00:31;;;;;;;;;;;6.90;99.90;;;5.72;100.00;94477.16;10511459;28;2987;-74
2022/11/23 10:05:33;;;;;;;;;;;6.80;99.90;;;5.75;100.00;94481.16;10520787;28;3060;-75
2022/11/23 10:10:37;;;;;;;;;;;6.70;99.90;;;5.78;100.00;94475.28;10513626;28;3076;-75
2022/11/23 10:15:39;;;;;;;;;;;6.70;99.90;;;5.77;100.00;94469.16;10521486;28;3382;-75
2022/11/23 10:20:42;;;;;;;;;;;6.70;99.90;;;5.85;100.00;94471.25;10512125;28;2999;-74
2022/11/23 10:25:45;;;;;;;;;;;6.70;99.90;;;5.80;100.00;94457.94;10526076;28;3031;-74
2022/11/23 10:30:47;;;;;;;;;;;6.80;99.90;;;5.84;100.00;94458.16;10520356;28;2994;-74
2022/11/23 10:35:52;;;;;;;;;;;6.80;99.90;;;5.94;100.00;94456.28;10503263;28;3007;-74
2022/11/23 10:40:55;;;;;;;;;;;6.80;99.90;;;6.06;100.00;94439.94;10516110;28;3013;-74
2022/11/23 10:45:58;;;;;;;;;;;6.90;99.90;;;6.17;100.00;94430.78;10515393;28;3030;-74
2022/11/23 10:51:01;;;;;;;;;;;7.00;99.90;;;6.36;100.00;94432.75;10529613;28;3176;-72
2022/11/23 10:56:07;;;;;;;;;;;7.10;99.90;;;6.45;100.00;94425.75;10499943;28;3108;-72
2022/11/23 11:01:10;;;;;;;;;;;7.20;99.90;;;6.47;100.00;94435.06;10509267;28;2935;-73
2022/11/23 11:06:13;;;;;;;;;;;7.30;99.90;;;6.73;100.00;94422.28;10527935;28;2995;-74
2022/11/23 11:11:18;;;;;;;;;;;7.40;99.90;;;6.96;100.00;94422.59;10528833;28;3145;-74
2022/11/23 11:16:21;;;;;;;;;;;7.60;99.90;;;7.34;100.00;94420.84;10521955;28;3045;-75
2022/11/23 11:21:24;;;;;;;;;;;7.90;99.90;;;7.47;100.00;94425.50;10506767;28;2990;-75
2022/11/23 11:26:27;;;;;;;;;;;8.10;99.90;;;7.58;100.00;94420.81;10519856;28;3095;-76
2022/11/23 11:31:29;;;;;;;;;;;8.20;99.90;;;7.72;100.00;94421.69;10530503;28;3044;-75
2022/11/23 11:36:32;;;;;;;;;;;8.40;99.90;;;7.79;100.00;94413.31;10517043;28;3064;-74
2022/11/23 11:41:37;;;;;;;;;;;8.50;99.90;;;7.94;100.00;94423.78;10521731;28;2988;-75
2022/11/23 11:46:40;;;;;;;;;;;8.60;99.90;;;8.07;100.00;94404.31;10516273;28;2966;-74
2022/11/23 11:51:43;;;;;;;;;;;8.70;99.90;;;8.48;100.00;94405.59;10509532;28;3077;-74
2022/11/23 11:56:45;;;;;;;;;;;8.90;99.90;;;8.43;100.00;94393.09;10517023;28;3031;-77
2022/11/23 12:01:50;;;;;;;;;;;9.10;99.90;;;8.30;100.00;94385.78;10513673;28;2971;-75
2022/11/23 12:06:54;;;;;;;;;;;9.10;99.90;;;8.31;100.00;94376.66;10510897;28;3091;-75
2022/11/23 12:11:57;;;;;;;;;;;9.10;99.90;;;8.06;100.00;94388.56;10513010;28;3053;-75
2022/11/23 12:16:59;;;;;;;;;;;9.00;99.90;;;8.00;100.00;94382.47;10516204;28;3079;-73
2022/11/23 12:22:22;;;;;;;;;;;8.80;99.90;;;7.95;100.00;94371.06;10508716;28;3166;-75
2022/11/23 12:27:25;;;;;;;;;;;8.90;99.90;;;8.05;100.00;94371.72;10510582;28;3395;-75
2022/11/23 12:32:27;;;;;;;;;;;8.90;99.90;;;8.13;100.00;94364.88;10507342;28;2999;-74
2022/11/23 12:37:30;;;;;;;;;;;9.00;99.90;;;7.83;100.00;94368.84;10505562;28;3046;-72
2022/11/23 12:42:33;;;;;;;;;;;8.80;99.90;;;7.68;100.00;94366.38;10513066;28;3092;-75
2022/11/23 12:47:35;;;;;;;;;;;8.60;99.90;;;7.54;100.00;94366.31;10505127;28;3053;-76
2022/11/23 12:52:38;;;;;;;;;;;8.50;99.90;;;7.36;100.00;94372.44;10517705;28;3053;-76
2022/11/23 12:57:41;;;;;;;;;;;8.40;99.90;;;7.30;100.00;94361.00;10523501;28;3003;-75
2022/11/23 13:02:43;;;;;;;;;;;8.30;99.90;;;7.48;100.00;94367.47;10538589;28;3003;-74
2022/11/23 13:07:46;;;;;;;;;;;8.20;99.90;;;7.40;100.00;94366.22;10539179;28;3048;-74
2022/11/23 13:12:51;;;;;;;;;;;8.30;99.90;;;7.30;100.00;94367.13;10531592;28;3057;-74
2022/11/23 13:17:54;;;;;;;;;;;8.20;99.90;;;7.20;100.00;94366.50;10533578;28;3105;-72
2022/11/23 13:22:57;;;;;;;;;;;8.20;99.90;;;7.08;100.00;94366.09;10521084;28;3109;-76
2022/11/23 13:28:00;;;;;;;;;;;8.00;99.90;;;6.89;100.00;94364.19;10540610;28;3012;-74
2022/11/23 13:33:03;;;;;;;;;;;7.90;99.90;;;6.75;100.00;94373.94;10530388;28;3030;-74
2022/11/23 13:38:05;;;;;;;;;;;7.70;99.90;;;6.55;100.00;94372.25;10523691;28;2965;-74
2022/11/23 13:43:08;;;;;;;;;;;7.60;99.90;;;6.50;100.00;94378.47;10531163;28;3039;-74
2022/11/23 13:48:12;;;;;;;;;;;7.50;99.90;;;6.47;100.00;94371.00;10549845;27;3026;-75
2022/11/23 13:53:35;;;;;;;;;;;7.50;99.90;;;6.62;100.00;94361.28;10532007;28;3001;-73
2022/11/23 13:58:38;;;;;;;;;;;7.50;99.90;;;6.68;100.00;94352.09;10529686;28;3190;-74
2022/11/23 14:03:51;;;;;;;;;;;7.60;99.90;;;6.62;100.00;94345.25;10525803;28;3178;-75
2022/11/23 14:08:54;;;;;;;;;;;7.60;99.90;;;6.45;100.00;94340.34;10526654;28;3037;-77
2022/11/23 14:13:56;;;;;;;;;;;7.50;99.90;;;6.38;100.00;94342.56;10516421;28;3152;-76
2022/11/23 14:18:59;;;;;;;;;;;7.50;99.90;;;6.28;100.00;94354.09;10510632;28;3129;-77
2022/11/23 14:24:03;;;;;;;;;;;7.40;99.90;;;6.30;100.00;94354.66;10523125;28;3390;-75
2022/11/23 14:29:07;;;;;;;;;;;7.40;99.90;;;6.29;100.00;94345.03;10513239;28;3098;-73
2022/11/23 14:34:10;;;;;;;;;;;7.30;99.90;;;6.22;100.00;94357.91;10519293;28;2983;-73
2022/11/23 14:39:13;;;;;;;;;;;7.30;99.90;;;6.09;100.00;94370.00;10500279;28;3118;-76
2022/11/23 14:44:16;;;;;;;;;;;7.30;99.90;;;6.16;100.00;94359.00;10525719;28;3041;-76
2022/11/23 14:49:19;;;;;;;;;;;7.20;99.90;;;6.06;100.00;94364.44;10528119;28;3059;-73
2022/11/23 14:54:22;;;;;;;;;;;7.10;99.90;;;6.07;100.00;94366.03;10521509;28;3020;-73
2022/11/23 14:59:24;;;;;;;;;;;7.10;99.90;;;5.89;100.00;94360.25;10517362;28;3057;-74
2022/11/23 15:04:32;;;;;;;;;;;7.00;99.90;;;5.72;100.00;94367.06;10528011;28;3009;-75
2022/11/23 15:09:36;;;;;;;;;;;6.90;99.90;;;5.61;100.00;94369.00;10524099;28;3041;-74
2022/11/23 15:14:38;;;;;;;;;;;6.80;99.90;;;5.52;100.00;94378.66;10506047;28;2978;-74
2022/11/23 15:19:44;;;;;;;;;;;6.70;99.90;;;5.28;100.00;94378.50;10510247;28;3418;-74
2022/11/23 15:24:47;;;;;;;;;;;6.50;99.90;;;5.24;100.00;94383.59;10515812;28;3077;-74
2022/11/23 15:29:51;;;;;;;;;;;6.40;99.90;;;5.17;100.00;94383.09;10505731;28;3105;-73
2022/11/23 15:34:54;;;;;;;;;;;6.40;99.90;;;5.05;100.00;94382.63;10494857;28;2926;-74
2022/11/23 15:39:57;;;;;;;;;;;6.30;99.90;;;4.99;100.00;94383.69;10500607;28;3071;-73
2022/11/23 15:44:59;;;;;;;;;;;6.20;99.90;;;5.04;100.00;94392.47;10513360;28;3010;-74
2022/11/23 15:50:02;;;;;;;;;;;6.10;99.90;;;4.74;100.00;94398.69;10503448;28;3370;-76
2022/11/23 15:55:05;;;;;;;;;;;6.00;99.90;;;4.69;100.00;94389.91;10514195;28;3041;-75
2022/11/23 16:00:11;;;;;;;;;;;5.90;99.90;;;4.58;100.00;94400.59;10518806;28;3022;-73
2022/11/23 16:05:14;;;;;;;;;;;5.80;99.90;;;4.59;100.00;94393.41;10511224;28;3120;-76
2022/11/23 16:10:17;;;;;;;;;;;5.70;99.90;;;4.45;100.00;94387.03;10515598;28;3054;-73
2022/11/23 16:15:21;;;;;;;;;;;5.70;99.90;;;4.38;100.00;94383.84;10504703;28;3060;-72
2022/11/23 16:20:24;;;;;;;;;;;5.50;99.90;;;4.17;100.00;94402.50;10516818;28;3126;-75
2022/11/23 16:25:26;;;;;;;;;;;5.50;99.90;;;4.15;100.00;94414.47;10513277;28;3014;-73
2022/11/23 16:30:29;;;;;;;;;;;5.40;99.90;;;4.05;100.00;94399.28;10521090;28;3020;-74
2022/11/23 16:35:33;;;;;;;;;;;5.30;99.90;;;4.00;100.00;94396.63;10521623;28;2987;-77
2022/11/23 16:40:36;;;;;;;;;;;5.10;99.90;;;4.04;100.00;94403.81;10519133;28;2991;-74
2022/11/23 16:45:38;;;;;;;;;;;5.10;99.90;;;3.91;100.00;94406.22;10521090;28;3027;-72
2022/11/23 16:50:41;;;;;;;;;;;5.10;99.90;;;3.76;100.00;94410.47;10521634;28;3045;-72
2022/11/23 16:55:44;;;;;;;;;;;5.00;99.90;;;3.65;100.00;94419.47;10519651;28;3035;-74
2022/11/23 17:00:47;;;;;;;;;;;5.00;99.90;;;3.53;100.00;94411.72;10503407;28;3106;-74
2022/11/23 17:05:51;;;;;;;;;;;4.80;99.90;;;3.36;100.00;94410.34;10511760;28;3061;-73
2022/11/23 17:10:53;;;;;;;;;;;4.70;99.90;;;3.24;100.00;94399.97;10517199;28;3058;-73
2022/11/23 17:15:56;;;;;;;;;;;4.60;99.90;;;3.06;100.00;94400.44;10523779;28;3370;-73
2022/11/23 17:20:58;;;;;;;;;;;4.40;99.90;;;2.95;100.00;94412.88;10517668;28;3061;-74
2022/11/23 17:26:01;;;;;;;;;;;4.30;99.90;;;2.96;100.00;94411.81;10523610;28;3030;-75
2022/11/23 17:31:04;;;;;;;;;;;4.30;99.90;;;3.07;100.00;94408.16;10512665;28;3100;-76
2022/11/23 17:36:06;;;;;;;;;;;4.30;99.90;;;2.95;100.00;94411.03;10512398;28;3021;-74
2022/11/23 17:41:09;;;;;;;;;;;4.20;99.90;;;3.05;100.00;94415.56;10502111;28;2993;-74
2022/11/23 17:46:13;;;;;;;;;;;4.30;99.90;;;3.04;100.00;94424.59;10505683;28;3080;-75
2022/11/23 17:51:15;;;;;;;;;;;4.20;99.90;;;2.97;100.00;94437.28;10519511;28;3091;-75
2022/11/23 17:56:20;;;;;;;;;;;4.10;99.90;;;2.83;100.00;94436.16;10515792;28;3053;-76
2022/11/23 18:01:23;;;;;;;;;;;4.00;99.90;;;2.75;100.00;94437.47;10529096;28;3045;-77
2022/11/23 18:06:26;;;;;;;;;;;4.00;99.90;;;2.69;100.00;94431.31;10526835;28;2995;-76
2022/11/23 18:11:28;;;;;;;;;;;3.90;99.90;;;2.55;100.00;94442.66;10523809;28;3070;-74
2022/11/23 18:16:31;;;;;;;;;;;3.80;99.90;;;2.52;100.00;94437.84;10516140;28;3060;-74
2022/11/23 18:21:34;;;;;;;;;;;3.70;99.90;;;2.41;100.00;94452.88;10523191;28;3029;-73
2022/11/23 18:26:36;;;;;;;;;;;3.70;99.90;;;2.52;100.00;94446.59;10519702;28;2958;-75
2022/11/23 18:31:43;;;;;;;;;;;3.70;99.90;;;2.40;100.00;94465.34;10520936;28;3049;-73
2022/11/23 18:36:45;;;;;;;;;;;3.70;99.90;;;2.40;100.00;94461.91;10528491;28;3045;-75
2022/11/23 18:41:48;;;;;;;;;;;3.70;99.90;;;2.38;100.00;94472.75;10523086;28;3143;-75
2022/11/23 18:46:58;;;;;;;;;;;3.60;99.90;;;2.30;100.00;94486.50;10513826;28;3027;-75
2022/11/23 18:52:00;;;;;;;;;;;3.50;99.90;;;2.40;100.00;94488.41;10515276;28;3034;-75
2022/11/23 18:57:03;;;;;;;;;;;3.50;99.90;;;2.60;100.00;94493.88;10510571;28;3070;-75
2022/11/23 19:02:06;;;;;;;;;;;3.60;99.90;;;2.83;100.00;94507.81;10522898;28;3013;-74
2022/11/23 19:07:08;;;;;;;;;;;3.70;99.90;;;3.15;100.00;94500.56;10522964;28;2982;-75
2022/11/23 19:12:11;;;;;;;;;;;3.90;99.90;;;3.44;100.00;94516.13;10511729;28;3143;-79
2022/11/23 19:17:14;;;;;;;;;;;4.20;99.90;;;3.57;100.00;94531.59;10522129;28;3033;-74
2022/11/23 19:22:17;;;;;;;;;;;4.40;99.90;;;3.62;100.00;94542.22;10519940;28;3068;-74
2022/11/23 19:27:19;;;;;;;;;;;4.50;99.90;;;3.72;100.00;94547.59;10513984;28;3057;-75
2022/11/23 19:32:22;;;;;;;;;;;4.50;99.90;;;3.78;100.00;94551.84;10513237;28;3011;-74
2022/11/23 19:37:25;;;;;;;;;;;4.70;99.90;;;3.79;100.00;94585.34;10519588;28;3038;-75
2022/11/23 19:42:28;;;;;;;;;;;4.70;99.90;;;3.98;100.00;94576.91;10515990;28;3029;-73
2022/11/23 19:47:31;;;;;;;;;;;4.80;99.90;;;3.94;100.00;94589.91;10511582;28;3038;-74
2022/11/23 19:52:36;;;;;;;;;;;4.90;99.90;;;4.04;100.00;94607.78;10518390;28;3038;-74
2022/11/23 19:57:59;;;;;;;;;;;4.90;99.90;;;4.10;100.00;94622.69;10510238;28;3167;-74
2022/11/23 20:03:01;;;;;;;;;;;5.00;99.90;;;4.09;100.00;94631.72;10518095;28;2979;-73
2022/11/23 20:08:07;;;;;;;;;;;5.00;99.90;;;3.98;100.00;94641.53;10521704;28;2985;-77
2022/11/23 20:13:10;;;;;;;;;;;5.00;99.90;;;3.91;100.00;94656.13;10509995;28;3103;-75
2022/11/23 20:18:12;;;;;;;;;;;4.90;99.90;;;3.82;100.00;94671.78;10513992;28;3058;-73
2022/11/23 20:23:15;;;;;;;;;;;4.80;99.90;;;3.72;100.00;94685.78;10502421;28;3061;-73
2022/11/23 20:28:18;;;;;;;;;;;4.70;99.90;;;3.68;100.00;94705.16;10520823;28;2983;-73
2022/11/23 20:33:21;;;;;;;;;;;4.70;99.90;;;3.65;100.00;94722.44;10509647;28;3022;-73
2022/11/23 20:38:25;;;;;;;;;;;4.70;99.90;;;3.56;100.00;94729.25;10510537;28;3099;-72
2022/11/23 20:43:27;;;;;;;;;;;4.50;99.90;;;3.48;100.00;94738.50;10513098;28;3051;-74
2022/11/23 20:48:30;;;;;;;;;;;4.50;99.90;;;3.52;100.00;94734.28;10506375;28;3046;-72
2022/11/23 20:53:33;;;;;;;;;;;4.50;99.90;;;3.49;100.00;94749.94;10517664;28;3442;-71
2022/11/23 20:58:36;;;;;;;;;;;4.40;99.90;;;3.52;100.00;94765.38;10515051;28;3034;-72
2022/11/23 21:03:39;;;;;;;;;;;4.40;99.90;;;3.49;100.00;94776.50;10511097;28;2950;-73
2022/11/23 21:08:43;;;;;;;;;;;4.40;99.90;;;3.38;100.00;94783.59;10520974;28;3050;-72
2022/11/23 21:19:07;;;;;;;;;;;4.30;99.90;;;3.22;100.00;94787.97;10520962;28;2932;-74
2022/11/23 21:24:11;;;;;;;;;;;4.20;99.90;;;3.19;100.00;94767.22;10521346;28;3038;-71
2022/11/23 21:29:15;;;;;;;;;;;4.10;99.90;;;3.21;100.00;94770.44;10520684;28;3026;-72
2022/11/23 21:34:17;;;;;;;;;;;4.10;99.90;;;3.29;100.00;94782.44;10520408;28;3021;-71
2022/11/23 21:39:20;;;;;;;;;;;4.20;99.90;;;3.22;100.00;94774.69;10526248;28;3020;-72
2022/11/23 21:44:23;;;;;;;;;;;4.20;99.90;;;3.24;100.00;94782.38;10522412;28;3002;-73
2022/11/23 21:49:26;;;;;;;;;;;4.20;99.90;;;3.25;100.00;94790.13;10524294;28;3107;-74
2022/11/23 21:54:29;;;;;;;;;;;4.30;99.90;;;3.30;100.00;94781.38;10522819;28;3016;-71
2022/11/23 21:59:31;;;;;;;;;;;4.20;99.90;;;3.37;100.00;94781.19;10523818;28;3019;-71
2022/11/23 22:04:34;;;;;;;;;;;4.30;99.90;;;3.46;100.00;94791.09;10519633;28;3041;-72
2022/11/23 22:09:37;;;;;;;;;;;4.30;99.90;;;3.47;100.00;94790.03;10518778;28;3181;-71
2022/11/23 22:14:40;;;;;;;;;;;4.30;99.90;;;3.58;100.00;94790.13;10524702;28;3081;-71
2022/11/23 22:19:43;;;;;;;;;;;4.50;99.90;;;3.65;100.00;94796.03;10529938;28;3093;-74
2022/11/23 22:24:45;;;;;;;;;;;4.50;99.90;;;3.74;100.00;94808.59;10515009;28;3045;-77
2022/11/23 22:29:48;;;;;;;;;;;4.60;99.90;;;3.86;100.00;94804.97;10517104;28;3066;-72
2022/11/23 22:34:51;;;;;;;;;;;4.60;99.90;;;3.98;100.00;94808.25;10524375;28;3046;-72
2022/11/23 22:39:54;;;;;;;;;;;4.80;99.90;;;4.11;100.00;94815.78;10517640;28;3169;-72
2022/11/23 22:44:57;;;;;;;;;;;4.90;99.90;;;4.15;100.00;94808.91;10516970;28;3049;-73
2022/11/23 22:50:00;;;;;;;;;;;5.00;99.90;;;4.33;100.00;94827.09;10522418;28;2987;-73
2022/11/23 22:55:03;;;;;;;;;;;5.10;99.90;;;4.47;100.00;94824.78;10524604;28;3049;-72
2022/11/23 23:00:09;;;;;;;;;;;5.30;99.90;;;4.49;100.00;94843.16;10525304;28;3070;-71
2022/11/23 23:05:12;;;;;;;;;;;5.40;99.90;;;4.66;100.00;94838.44;10516899;28;3252;-72
2022/11/23 23:10:14;;;;;;;;;;;5.50;99.90;;;4.80;100.00;94852.88;10520164;28;3033;-72
2022/11/23 23:15:17;;;;;;;;;;;5.60;99.90;;;4.92;100.00;94852.66;10516743;28;2978;-72
2022/11/23 23:20:20;;;;;;;;;;;5.70;99.90;;;5.03;100.00;94849.00;10521427;28;3058;-74
2022/11/23 23:25:23;;;;;;;;;;;5.80;99.90;;;5.15;100.00;94859.41;10522655;28;3102;-72
2022/11/23 23:30:26;;;;;;;;;;;6.00;99.90;;;5.23;100.00;94856.25;10513164;28;2989;-73
2022/11/23 23:35:29;;;;;;;;;;;6.10;99.90;;;5.32;100.00;94869.84;10511640;28;3058;-73
2022/11/23 23:40:31;;;;;;;;;;;6.20;99.90;;;5.37;100.00;94884.00;10509987;28;3041;-74